Time;durP1;ratioP1;P1;durP2;ratioP2;P2;SDS_P1;SDS_P2;PMS_P1;PMS_P2;Temp;Humidity;BMP_temperature;BMP_pressure;BME280_temperature;BME280_humidity;BME280_pressure;Samples;Min_cycle;Max_cycle;Signal;HPM_P1;HPM_P2
2023/07/27 00:01:14;;;;;;;0.10;0.10;;;;;;;17.25;88.17;100288.09;5077588;28;20579;-64
2023/07/27 00:03:39;;;;;;;0.52;0.20;;;;;;;17.24;88.13;100281.09;5006476;28;20041;-64
2023/07/27 00:06:05;;;;;;;0.17;0.17;;;;;;;17.27;88.40;100278.31;5009719;28;20038;-63
2023/07/27 00:08:30;;;;;;;0.22;0.22;;;;;;;17.35;87.09;100271.59;5072130;28;20068;-65
2023/07/27 00:10:56;;;;;;;0.28;0.22;;;;;;;17.19;87.76;100276.84;4999486;28;20148;-64
2023/07/27 00:13:21;;;;;;;0.22;0.22;;;;;;;17.10;88.33;100279.31;5004144;28;20030;-64
2023/07/27 00:15:47;;;;;;;0.40;0.28;;;;;;;17.24;87.80;100281.88;5004088;28;20047;-64
2023/07/27 00:18:12;;;;;;;0.28;0.20;;;;;;;17.19;87.67;100274.13;5009757;28;20038;-65
2023/07/27 00:20:37;;;;;;;0.25;0.25;;;;;;;17.21;87.25;100273.75;5074136;28;20034;-63
2023/07/27 00:23:03;;;;;;;0.15;0.10;;;;;;;17.15;87.62;100273.41;5068316;28;20407;-63
2023/07/27 00:25:28;;;;;;;0.10;0.10;;;;;;;17.16;87.96;100274.97;5005290;28;20153;-63
2023/07/27 00:27:54;;;;;;;0.30;0.30;;;;;;;17.03;89.00;100272.00;5010240;28;20505;-63
2023/07/27 00:30:19;;;;;;;0.10;0.10;;;;;;;17.05;89.09;100268.88;5002046;28;20037;-63
2023/07/27 00:32:44;;;;;;;0.77;0.30;;;;;;;17.11;88.94;100270.72;5048666;28;20034;-63
2023/07/27 00:35:10;;;;;;;0.10;0.10;;;;;;;17.09;89.57;100270.38;5006497;28;20083;-63
2023/07/27 00:37:35;;;;;;;0.38;0.22;;;;;;;17.16;89.15;100261.34;5001127;28;20043;-61
2023/07/27 00:40:01;;;;;;;0.28;0.28;;;;;;;17.05;88.80;100266.91;5004520;28;20026;-63
2023/07/27 00:42:27;;;;;;;0.22;0.13;;;;;;;17.02;89.80;100256.09;5004043;28;20038;-62
2023/07/27 00:44:52;;;;;;;0.38;0.20;;;;;;;17.01;90.29;100260.75;5038040;28;20099;-63
2023/07/27 00:47:18;;;;;;;0.20;0.20;;;;;;;16.91;90.86;100252.72;5062760;28;20030;-62
2023/07/27 00:49:43;;;;;;;0.43;0.25;;;;;;;16.85;90.33;100262.50;5009832;28;20018;-62
2023/07/27 00:52:09;;;;;;;1.38;0.30;;;;;;;16.94;91.25;100247.25;5064371;28;20057;-63
2023/07/27 00:54:35;;;;;;;0.60;0.55;;;;;;;16.95;91.47;100248.03;5043637;28;20029;-61
2023/07/27 00:57:01;;;;;;;1.38;0.43;;;;;;;16.96;90.54;100244.88;5073910;28;20048;-63
2023/07/27 00:59:27;;;;;;;0.30;0.30;;;;;;;16.95;91.14;100240.63;5039693;28;20053;-63
2023/07/27 01:01:53;;;;;;;0.25;0.25;;;;;;;16.99;91.40;100246.03;5008138;28;20096;-63
2023/07/27 01:04:19;;;;;;;0.95;0.30;;;;;;;17.09;90.51;100245.88;5009632;28;20030;-63
2023/07/27 01:06:46;;;;;;;1.10;0.40;;;;;;;17.28;88.90;100246.44;5064288;28;20117;-64
2023/07/27 01:09:11;;;;;;;0.55;0.40;;;;;;;17.16;90.01;100236.88;5030972;28;20181;-64
2023/07/27 01:11:51;;;;;;;0.47;0.40;;;;;;;17.22;88.75;100240.69;5003476;28;20083;-64
2023/07/27 01:14:38;;;;;;;0.95;0.50;;;;;;;17.10;89.34;100238.50;5008500;28;20041;-63
2023/07/27 01:17:11;;;;;;;0.40;0.40;;;;;;;17.09;90.18;100226.84;5009101;28;20035;-63
2023/07/27 01:20:21;;;;;;;1.30;0.45;;;;;;;17.00;90.97;100223.84;5003265;28;20038;-63
2023/07/27 01:23:26;;;;;;;1.45;0.52;;;;;;;17.09;90.75;100224.09;5051309;28;20750;-63
2023/07/27 01:26:22;;;;;;;0.77;0.43;;;;;;;17.06;90.03;100216.78;5022228;28;20508;-63
2023/07/27 01:29:27;;;;;;;0.57;0.57;;;;;;;17.01;91.05;100221.91;5072969;28;20041;-63
2023/07/27 01:31:54;;;;;;;1.85;0.70;;;;;;;17.02;91.64;100220.72;5008323;28;20026;-63
2023/07/27 01:34:32;;;;;;;2.38;0.85;;;;;;;16.99;90.73;100213.38;5002628;28;20037;-63
2023/07/27 01:37:04;;;;;;;0.95;0.55;;;;;;;16.95;91.26;100220.81;5069007;28;20082;-63
2023/07/27 01:39:31;;;;;;;;;;;;;;;16.91;91.44;100211.94;5037497;28;20043;-64
2023/07/27 01:41:58;;;;;;;0.65;0.32;;;;;;;16.91;91.20;100206.47;5005310;28;19918;-63
2023/07/27 01:44:26;;;;;;;1.08;0.50;;;;;;;16.90;91.63;100204.94;4998695;28;20380;-63
2023/07/27 01:46:52;;;;;;;1.00;0.93;;;;;;;16.95;91.41;100205.28;5067612;28;20458;-63
2023/07/27 01:49:20;;;;;;;0.68;0.68;;;;;;;16.96;90.79;100209.53;5009115;28;20087;-63
2023/07/27 01:51:46;;;;;;;1.52;0.82;;;;;;;16.91;91.38;100201.03;5007994;28;20041;-63
2023/07/27 01:54:13;;;;;;;0.40;0.32;;;;;;;16.85;90.89;100202.66;5008198;28;20045;-62
2023/07/27 01:56:40;;;;;;;0.73;0.57;;;;;;;16.81;90.67;100200.00;5004441;28;20049;-62
2023/07/27 01:59:09;;;;;;;0.28;0.28;;;;;;;16.83;90.66;100194.16;5027836;28;20032;-62
2023/07/27 02:01:37;;;;;;;0.75;0.60;;;;;;;16.72;91.55;100190.78;5069784;28;20030;-62
2023/07/27 02:04:04;;;;;;;1.23;0.60;;;;;;;16.69;91.11;100188.88;5003723;28;20054;-63
2023/07/27 02:06:29;;;;;;;0.93;0.52;;;;;;;16.67;91.69;100180.34;5033027;28;20454;-63
2023/07/27 02:08:55;;;;;;;1.58;1.05;;;;;;;16.69;91.04;100183.44;5007403;28;20125;-62
2023/07/27 02:11:23;;;;;;;2.08;1.48;;;;;;;16.61;91.71;100185.47;4999636;28;20085;-63
2023/07/27 02:13:59;;;;;;;0.68;0.45;;;;;;;16.56;91.94;100180.50;5006087;28;20044;-62
2023/07/27 02:16:36;;;;;;;0.50;0.50;;;;;;;16.64;91.01;100178.47;5056739;28;20042;-64
2023/07/27 02:19:04;;;;;;;1.58;0.85;;;;;;;16.57;92.10;100175.84;5006931;28;20371;-63
2023/07/27 02:21:31;;;;;;;0.82;0.52;;;;;;;16.53;91.53;100184.00;5047335;28;20043;-63
2023/07/27 02:23:58;;;;;;;1.13;0.80;;;;;;;16.50;91.67;100182.13;5050317;28;20042;-62
2023/07/27 02:26:23;;;;;;;0.70;0.70;;;;;;;16.40;91.99;100176.75;5000133;28;20736;-63
2023/07/27 02:28:49;;;;;;;1.30;0.75;;;;;;;16.44;92.14;100182.94;5007150;28;20026;-63
2023/07/27 02:31:17;;;;;;;1.20;1.05;;;;;;;16.58;90.60;100177.38;5061420;28;20087;-62
2023/07/27 02:33:42;;;;;;;0.88;0.65;;;;;;;16.69;89.71;100169.84;5043226;28;20421;-64
2023/07/27 02:36:08;;;;;;;1.30;0.75;;;;;;;16.58;90.33;100169.97;5069217;28;20536;-63
2023/07/27 02:38:36;;;;;;;1.42;0.50;;;;;;;16.43;91.43;100170.53;5090075;28;20041;-62
2023/07/27 02:41:02;;;;;;;2.67;1.17;;;;;;;16.36;91.28;100165.94;5000967;28;20094;-62
2023/07/27 02:43:27;;;;;;;1.40;0.52;;;;;;;16.40;91.46;100163.16;5007581;28;20037;-63
2023/07/27 02:46:00;;;;;;;1.25;0.93;;;;;;;16.15;92.19;100161.50;5073671;28;20414;-64
2023/07/27 02:48:26;;;;;;;0.75;0.45;;;;;;;16.10;93.06;100161.94;5070172;28;20030;-63
2023/07/27 02:50:52;;;;;;;1.48;0.75;;;;;;;16.27;91.80;100165.66;5068857;28;20041;-64
2023/07/27 02:53:18;;;;;;;1.85;0.73;;;;;;;16.14;92.33;100159.94;5041541;28;20409;-63
2023/07/27 02:56:05;;;;;;;0.75;0.55;;;;;;;16.21;91.90;100164.53;5077294;28;20163;-63
2023/07/27 02:58:40;;;;;;;1.95;1.10;;;;;;;16.27;91.71;100160.22;5077286;28;20026;-64
2023/07/27 03:01:05;;;;;;;2.33;1.15;;;;;;;16.24;91.78;100164.50;5010558;28;20573;-62
2023/07/27 03:03:32;;;;;;;1.05;0.80;;;;;;;16.21;91.67;100156.41;5089298;28;20038;-63
2023/07/27 03:06:07;;;;;;;0.80;0.80;;;;;;;16.27;91.60;100163.72;5011729;28;20038;-62
2023/07/27 03:08:33;;;;;;;0.90;0.80;;;;;;;16.22;91.78;100160.63;5057338;28;20034;-62
2023/07/27 03:11:03;;;;;;;0.73;0.73;;;;;;;16.24;91.10;100159.06;5042780;28;20026;-62
2023/07/27 03:13:30;;;;;;;1.20;1.00;;;;;;;16.28;90.29;100159.81;5008018;28;20038;-61
2023/07/27 03:15:56;;;;;;;1.02;0.57;;;;;;;16.23;91.12;100167.63;5011018;28;20038;-62
2023/07/27 03:18:22;;;;;;;0.50;0.50;;;;;;;16.13;91.57;100161.13;5077327;28;20064;-62
2023/07/27 03:20:47;;;;;;;2.55;1.25;;;;;;;16.09;91.74;100163.13;5010712;28;20690;-62
2023/07/27 03:23:13;;;;;;;1.30;0.90;;;;;;;16.06;91.89;100158.50;5006373;28;20490;-63
2023/07/27 03:25:38;;;;;;;1.52;1.20;;;;;;;16.10;91.76;100163.91;5010208;28;20079;-62
2023/07/27 03:28:06;;;;;;;2.10;1.17;;;;;;;16.08;91.83;100164.31;5001592;28;20034;-62
2023/07/27 03:30:35;;;;;;;1.48;0.90;;;;;;;16.07;91.45;100159.25;5043682;28;20398;-62
2023/07/27 03:33:02;;;;;;;1.33;0.80;;;;;;;16.05;91.79;100153.44;5051263;28;20092;-63
2023/07/27 03:35:28;;;;;;;0.93;0.52;;;;;;;16.09;92.06;100149.53;5061045;28;20039;-63
2023/07/27 03:37:53;;;;;;;1.17;0.77;;;;;;;16.01;92.06;100156.22;5044672;28;20166;-62
2023/07/27 03:40:21;;;;;;;1.33;0.85;;;;;;;16.07;92.13;100162.75;5055485;28;20087;-63
2023/07/27 03:42:47;;;;;;;1.20;0.90;;;;;;;16.08;91.39;100166.25;5078162;28;20030;-63
2023/07/27 03:45:17;;;;;;;1.00;0.70;;;;;;;16.01;91.39;100158.91;5072229;28;20551;-63
2023/07/27 03:47:44;;;;;;;1.50;0.93;;;;;;;16.10;91.12;100155.75;5051311;28;20033;-63
2023/07/27 03:50:30;;;;;;;4.15;1.00;;;;;;;16.01;91.18;100152.72;5061379;28;20121;-61
2023/07/27 03:52:56;;;;;;;1.20;1.00;;;;;;;16.05;91.42;100156.94;5004902;28;20088;-63
2023/07/27 03:55:21;;;;;;;0.93;0.80;;;;;;;16.21;90.25;100148.25;5011826;28;20037;-62
2023/07/27 03:57:48;;;;;;;0.60;0.52;;;;;;;16.18;90.13;100144.38;5003681;28;20045;-63
2023/07/27 04:00:13;;;;;;;0.80;0.70;;;;;;;16.17;91.07;100145.56;4978926;28;20088;-63
2023/07/27 04:02:41;;;;;;;0.80;0.70;;;;;;;16.16;91.45;100149.44;5006926;28;20276;-63
2023/07/27 04:05:07;;;;;;;1.10;0.88;;;;;;;16.15;91.93;100139.78;5017726;28;20077;-62
2023/07/27 04:07:32;;;;;;;1.70;0.80;;;;;;;16.15;91.12;100141.72;5010661;28;20112;-62
2023/07/27 04:09:58;;;;;;;1.65;1.10;;;;;;;15.99;92.79;100133.31;5019093;28;20073;-63
2023/07/27 04:12:24;;;;;;;1.52;0.93;;;;;;;15.94;93.32;100137.28;5008678;28;20037;-63
2023/07/27 04:14:49;;;;;;;1.65;1.40;;;;;;;16.04;92.83;100136.41;5004871;28;20033;-63
2023/07/27 04:17:15;;;;;;;1.05;0.70;;;;;;;16.02;93.00;100133.31;5011678;28;20049;-62
2023/07/27 04:19:40;;;;;;;1.65;1.40;;;;;;;15.66;95.43;100126.66;5000835;28;20018;-63
2023/07/27 04:22:05;;;;;;;2.13;1.23;;;;;;;15.99;93.69;100127.91;5011457;28;20072;-63
2023/07/27 04:24:31;;;;;;;2.55;1.05;;;;;;;15.97;94.29;100122.88;5019204;28;20577;-61
2023/07/27 04:26:56;;;;;;;2.47;1.23;;;;;;;16.23;93.01;100130.38;5010669;28;20048;-63
2023/07/27 04:29:22;;;;;;;1.92;1.40;;;;;;;16.29;92.29;100125.25;5010850;28;20045;-63
2023/07/27 04:31:47;;;;;;;5.40;1.23;;;;;;;16.23;93.34;100124.94;5009778;28;20040;-63
2023/07/27 04:34:13;;;;;;;2.63;1.20;;;;;;;16.20;94.21;100119.53;5066631;28;20137;-63
2023/07/27 04:36:38;;;;;;;2.33;1.15;;;;;;;16.20;94.50;100114.09;5007591;28;20519;-63
2023/07/27 04:39:04;;;;;;;2.63;1.45;;;;;;;16.37;93.14;100118.56;5074193;28;20654;-63
2023/07/27 04:41:30;;;;;;;1.92;1.55;;;;;;;16.42;93.36;100115.38;5007590;28;20030;-63
2023/07/27 04:43:57;;;;;;;2.40;1.25;;;;;;;15.93;94.88;100113.25;5009146;28;20033;-63
2023/07/27 04:46:23;;;;;;;1.50;1.20;;;;;;;16.02;95.24;100111.59;5002499;28;20398;-63
2023/07/27 04:48:48;;;;;;;3.10;1.58;;;;;;;15.93;95.35;100108.56;5087864;28;20037;-64
2023/07/27 04:51:14;;;;;;;0.80;0.80;;;;;;;16.11;95.04;100109.16;5009363;28;20045;-63
2023/07/27 04:53:39;;;;;;;3.08;1.60;;;;;;;16.15;94.85;100099.00;5076617;28;20036;-61
2023/07/27 04:56:04;;;;;;;2.80;1.52;;;;;;;16.15;94.97;100111.81;5004339;28;20080;-63
2023/07/27 04:58:30;;;;;;;3.47;1.33;;;;;;;16.06;95.75;100103.41;5008772;28;20087;-63
2023/07/27 05:00:56;;;;;;;3.33;1.73;;;;;;;15.92;97.40;100103.53;5073985;28;20116;-63
2023/07/27 05:03:21;;;;;;;2.97;1.38;;;;;;;16.18;95.92;100109.06;5007606;28;20078;-63
2023/07/27 05:05:47;;;;;;;2.30;1.67;;;;;;;16.10;96.99;100093.25;5005950;28;20444;-62
2023/07/27 05:08:12;;;;;;;3.92;1.77;;;;;;;16.23;96.58;100097.75;5008965;28;20033;-62
2023/07/27 05:10:40;;;;;;;3.15;1.58;;;;;;;16.47;95.91;100087.00;5005872;28;20136;-63
2023/07/27 05:13:07;;;;;;;4.90;1.58;;;;;;;16.48;96.70;100074.91;5008326;28;20034;-63
2023/07/27 05:15:32;;;;;;;1.65;1.30;;;;;;;16.62;95.62;100077.50;5008256;28;20120;-61
2023/07/27 05:17:57;;;;;;;4.20;1.95;;;;;;;16.62;94.74;100085.66;5049541;28;20113;-63
2023/07/27 05:20:23;;;;;;;4.97;1.70;;;;;;;16.54;95.35;100081.47;5008597;28;20057;-62
2023/07/27 05:22:48;;;;;;;2.33;1.38;;;;;;;16.68;93.56;100084.00;5008758;28;20049;-62
2023/07/27 05:25:14;;;;;;;2.78;1.80;;;;;;;16.65;95.01;100076.66;5006138;28;20038;-63
2023/07/27 05:27:40;;;;;;;2.40;1.73;;;;;;;16.86;93.78;100081.81;5039034;28;20637;-63
2023/07/27 05:30:06;;;;;;;3.17;1.90;;;;;;;16.82;94.02;100086.53;5005816;28;20033;-62
2023/07/27 05:32:31;;;;;;;2.38;1.30;;;;;;;16.79;94.95;100087.34;5008404;28;20026;-63
2023/07/27 05:34:56;;;;;;;1.98;1.38;;;;;;;16.90;94.09;100088.72;5008697;28;20503;-63
2023/07/27 05:37:22;;;;;;;3.63;1.55;;;;;;;16.94;93.24;100094.88;5009592;28;20045;-63
2023/07/27 05:39:47;;;;;;;4.20;1.52;;;;;;;16.82;93.69;100097.41;5005705;28;20565;-63
2023/07/27 05:42:13;;;;;;;2.15;1.40;;;;;;;16.52;93.99;100083.84;5007522;28;20074;-63
2023/07/27 05:44:38;;;;;;;2.88;1.70;;;;;;;16.58;94.56;100084.91;5009326;28;20037;-64
2023/07/27 05:47:06;;;;;;;4.60;1.50;;;;;;;16.59;95.07;100083.75;5006896;28;20030;-63
2023/07/27 05:49:32;;;;;;;2.85;1.63;;;;;;;16.67;93.77;100074.31;5008244;28;20534;-63
2023/07/27 05:51:58;;;;;;;3.03;1.95;;;;;;;16.70;94.70;100073.50;5008514;28;20044;-63
2023/07/27 05:54:23;;;;;;;4.20;2.05;;;;;;;16.70;94.77;100060.69;5009030;28;20030;-64
2023/07/27 05:56:49;;;;;;;3.05;1.48;;;;;;;16.77;94.42;100057.06;5003724;28;20025;-63
2023/07/27 05:59:14;;;;;;;2.55;1.77;;;;;;;16.78;94.25;100056.66;5010939;28;20062;-62
2023/07/27 06:01:42;;;;;;;2.53;1.83;;;;;;;16.62;94.96;100051.06;5009020;28;20061;-63
2023/07/27 06:04:08;;;;;;;3.40;1.90;;;;;;;16.75;94.86;100054.75;4996800;28;20273;-63
2023/07/27 06:06:34;;;;;;;2.88;1.65;;;;;;;16.97;94.78;100056.00;5013142;28;20034;-63
2023/07/27 06:09:00;;;;;;;4.97;1.60;;;;;;;16.98;93.56;100062.19;5012575;28;20038;-63
2023/07/27 06:11:25;;;;;;;2.15;1.23;;;;;;;17.12;92.98;100064.69;5013842;28;20052;-63
2023/07/27 06:13:51;;;;;;;2.25;1.65;;;;;;;17.12;93.38;100056.53;5011886;28;20043;-63
2023/07/27 06:16:16;;;;;;;2.45;1.65;;;;;;;17.03;92.46;100059.00;5011861;28;20091;-62
2023/07/27 06:18:42;;;;;;;2.67;1.75;;;;;;;16.84;93.54;100057.72;5012625;28;20093;-63
2023/07/27 06:21:07;;;;;;;3.60;1.48;;;;;;;16.78;94.35;100055.91;5007281;28;20032;-62
2023/07/27 06:23:33;;;;;;;2.85;1.50;;;;;;;17.04;94.01;100058.59;5010677;28;20037;-62
2023/07/27 06:25:58;;;;;;;9.63;1.85;;;;;;;16.88;94.59;100046.78;5009188;28;20117;-62
2023/07/27 06:28:24;;;;;;;3.13;1.40;;;;;;;16.99;95.19;100050.13;5009260;28;20044;-63
2023/07/27 06:30:49;;;;;;;4.88;1.70;;;;;;;16.93;95.13;100052.56;5007103;28;20546;-62
2023/07/27 06:33:15;;;;;;;5.97;2.33;;;;;;;17.06;93.99;100047.28;5009674;28;20120;-63
2023/07/27 06:35:40;;;;;;;1.63;1.23;;;;;;;17.13;94.33;100047.16;5010583;28;20109;-63
2023/07/27 06:38:06;;;;;;;2.40;1.40;;;;;;;17.25;93.52;100048.56;4997051;28;20041;-63
2023/07/27 06:40:31;;;;;;;4.47;1.95;;;;;;;17.32;93.39;100049.22;5006992;28;20038;-63
2023/07/27 06:42:56;;;;;;;2.90;1.52;;;;;;;17.35;93.50;100048.38;5006993;28;20052;-63
2023/07/27 06:45:22;;;;;;;3.22;1.70;;;;;;;17.28;93.30;100045.78;5008455;28;20042;-62
2023/07/27 06:47:47;;;;;;;2.22;1.88;;;;;;;17.02;94.78;100057.47;5003546;28;20045;-62
2023/07/27 06:50:13;;;;;;;3.58;1.63;;;;;;;16.85;96.12;100047.63;5007222;28;20105;-61
2023/07/27 06:52:38;;;;;;;4.22;1.92;;;;;;;17.11;94.62;100049.56;5003518;28;20121;-62
2023/07/27 06:55:06;;;;;;;2.45;1.38;;;;;;;17.24;94.20;100058.66;5007054;28;20269;-62
2023/07/27 06:57:31;;;;;;;2.58;1.25;;;;;;;17.33;94.29;100058.91;5001927;28;20041;-63
2023/07/27 06:59:57;;;;;;;2.92;1.67;;;;;;;17.59;93.26;100062.75;5008000;28;20038;-63
2023/07/27 07:02:23;;;;;;;2.75;1.25;;;;;;;17.63;93.29;100049.84;5006797;28;20026;-63
2023/07/27 07:04:49;;;;;;;3.20;1.35;;;;;;;17.81;92.62;100047.56;5008112;28;20524;-62
2023/07/27 07:07:14;;;;;;;2.88;1.75;;;;;;;17.93;92.28;100055.88;5003705;28;20046;-63
2023/07/27 07:09:40;;;;;;;3.72;1.73;;;;;;;17.38;94.58;100046.78;5007208;28;20129;-62
2023/07/27 07:12:06;;;;;;;2.38;1.70;;;;;;;17.42;94.06;100047.50;5000833;28;20476;-62
2023/07/27 07:14:32;;;;;;;3.08;2.03;;;;;;;17.55;94.26;100038.31;5007876;28;20053;-62
2023/07/27 07:17:02;;;;;;;2.97;2.20;;;;;;;17.91;91.47;100038.41;4998303;28;20054;-63
2023/07/27 07:19:27;;;;;;;3.22;1.42;;;;;;;17.88;92.36;100037.31;5006782;28;20109;-62
2023/07/27 07:21:53;;;;;;;2.80;1.95;;;;;;;17.96;92.24;100041.41;5004592;28;20180;-62
2023/07/27 07:24:19;;;;;;;2.78;1.50;;;;;;;17.81;92.29;100045.59;5006584;28;20045;-62
2023/07/27 07:26:45;;;;;;;2.60;1.52;;;;;;;17.84;92.74;100049.47;5007645;28;20049;-63
2023/07/27 07:29:11;;;;;;;3.47;2.20;;;;;;;17.82;93.14;100055.34;5008008;28;20029;-63
2023/07/27 07:31:37;;;;;;;2.80;1.67;;;;;;;17.90;93.35;100055.97;4999159;28;20411;-64
2023/07/27 07:34:02;;;;;;;2.72;1.73;;;;;;;17.92;93.03;100053.59;5006621;28;20152;-64
2023/07/27 07:36:27;;;;;;;4.65;1.50;;;;;;;17.88;92.70;100047.44;5066311;28;20053;-62
2023/07/27 07:38:53;;;;;;;1.50;1.20;;;;;;;17.91;92.58;100046.59;5005711;28;20108;-64
2023/07/27 07:41:18;;;;;;;2.30;1.48;;;;;;;18.02;91.07;100037.00;5005860;28;20265;-63
2023/07/27 07:43:44;;;;;;;3.25;1.35;;;;;;;17.94;91.17;100040.31;5004485;28;20030;-63
2023/07/27 07:46:10;;;;;;;1.85;1.35;;;;;;;17.84;92.79;100042.06;5005514;28;20522;-63
2023/07/27 07:48:36;;;;;;;2.53;1.83;;;;;;;17.87;92.53;100040.44;5008321;28;20474;-63
2023/07/27 07:51:01;;;;;;;2.60;1.35;;;;;;;18.03;91.85;100033.13;5009050;28;20034;-63
2023/07/27 07:53:26;;;;;;;2.60;1.33;;;;;;;17.79;92.85;100031.63;5003208;28;20066;-64
2023/07/27 07:55:52;;;;;;;2.90;1.48;;;;;;;17.87;92.84;100022.13;5010010;28;20514;-62
2023/07/27 07:58:17;;;;;;;3.33;1.83;;;;;;;17.95;91.72;100028.22;5010855;28;20239;-63
2023/07/27 08:00:43;;;;;;;2.90;1.30;;;;;;;18.02;91.29;100030.81;4997591;28;20414;-63
2023/07/27 08:03:08;;;;;;;2.63;1.40;;;;;;;17.98;91.18;100019.97;5008640;28;20042;-63
2023/07/27 08:05:33;;;;;;;2.20;1.30;;;;;;;18.04;90.82;100029.19;5010260;28;20413;-62
2023/07/27 08:08:01;;;;;;;3.95;1.38;;;;;;;17.67;92.75;100020.59;5010825;28;20152;-63
2023/07/27 08:10:26;;;;;;;3.53;1.60;;;;;;;17.64;93.40;100021.41;5003073;28;20087;-63
2023/07/27 08:12:53;;;;;;;2.70;1.95;;;;;;;17.76;93.40;100016.13;5008364;28;20033;-64
2023/07/27 08:15:19;;;;;;;3.78;1.52;;;;;;;17.77;94.22;100014.16;5005674;28;20041;-63
2023/07/27 08:17:44;;;;;;;1.70;1.20;;;;;;;18.00;92.64;100009.41;5009434;28;20520;-63
2023/07/27 08:20:10;;;;;;;3.30;1.52;;;;;;;17.83;95.67;100016.00;5002358;28;20060;-64
2023/07/27 08:22:35;;;;;;;3.33;1.73;;;;;;;18.08;93.84;100003.84;5008046;28;20056;-64
2023/07/27 08:25:01;;;;;;;2.53;1.33;;;;;;;18.36;93.28;100005.94;5009711;28;20553;-63
2023/07/27 08:27:26;;;;;;;2.33;1.52;;;;;;;18.59;91.58;99998.44;5006647;28;20437;-63
2023/07/27 08:29:52;;;;;;;3.15;1.48;;;;;;;18.53;92.36;99999.34;4997934;28;20038;-63
2023/07/27 08:32:17;;;;;;;1.95;1.17;;;;;;;18.80;90.77;100003.38;5007145;28;20120;-63
2023/07/27 08:34:43;;;;;;;3.25;1.42;;;;;;;18.86;90.51;99992.72;5004230;28;20038;-63
2023/07/27 08:37:08;;;;;;;2.15;1.42;;;;;;;18.92;89.56;99989.06;5009443;28;20021;-63
2023/07/27 08:39:37;;;;;;;2.28;1.38;;;;;;;19.13;88.80;100004.13;5009387;28;20082;-63
2023/07/27 08:42:02;;;;;;;2.17;1.35;;;;;;;19.03;87.99;99999.72;5009346;28;20053;-64
2023/07/27 08:44:28;;;;;;;2.20;1.42;;;;;;;19.04;88.90;99990.34;5000977;28;20045;-63
2023/07/27 08:46:55;;;;;;;3.13;1.38;;;;;;;18.68;89.74;99995.09;5009328;28;20521;-63
2023/07/27 08:49:21;;;;;;;2.60;1.83;;;;;;;18.85;89.38;99996.66;5009438;28;20025;-64
2023/07/27 08:51:46;;;;;;;4.18;1.42;;;;;;;18.39;90.63;99980.56;5049178;28;20532;-63
2023/07/27 08:54:12;;;;;;;2.67;1.63;;;;;;;18.44;90.37;99982.81;5008246;28;20042;-63
2023/07/27 08:56:38;;;;;;;4.60;2.08;;;;;;;18.18;91.37;99972.84;5009686;28;20045;-63
2023/07/27 08:59:03;;;;;;;3.55;1.85;;;;;;;18.45;90.69;99973.41;5005840;28;20038;-64
2023/07/27 09:01:29;;;;;;;5.80;2.25;;;;;;;18.61;89.79;99990.59;5007087;28;20029;-63
2023/07/27 09:03:54;;;;;;;2.05;1.20;;;;;;;18.75;89.53;99984.03;5005525;28;20041;-63
2023/07/27 09:06:39;;;;;;;2.20;1.27;;;;;;;18.74;90.05;99985.22;5007109;28;20030;-63
2023/07/27 09:09:20;;;;;;;2.78;1.35;;;;;;;18.82;89.83;99983.84;5003745;28;20026;-63
2023/07/27 09:11:46;;;;;;;2.35;1.52;;;;;;;18.68;89.42;99978.72;4995461;28;20041;-64
2023/07/27 09:14:13;;;;;;;5.93;2.10;;;;;;;18.83;89.13;99993.59;5002773;28;20417;-64
2023/07/27 09:16:38;;;;;;;1.38;1.20;;;;;;;18.82;88.93;99989.31;5009433;28;20041;-63
2023/07/27 09:19:05;;;;;;;4.47;1.63;;;;;;;19.03;87.92;99986.06;5001859;28;20083;-63
2023/07/27 09:21:43;;;;;;;2.75;1.80;;;;;;;19.01;88.25;99988.44;5008788;28;20094;-63
2023/07/27 09:24:13;;;;;;;2.33;1.50;;;;;;;19.10;87.27;99979.66;5008581;28;20467;-63
2023/07/27 09:26:50;;;;;;;2.17;1.58;;;;;;;18.92;87.68;99977.38;5008906;28;20038;-64
2023/07/27 09:29:17;;;;;;;4.32;1.80;;;;;;;19.15;87.37;99977.19;5004626;28;20057;-64
2023/07/27 09:31:45;;;;;;;2.85;1.42;;;;;;;19.03;87.56;99977.88;5006750;28;20096;-64
2023/07/27 09:34:10;;;;;;;2.50;1.77;;;;;;;18.58;89.52;99985.22;5009318;28;20057;-63
2023/07/27 09:36:37;;;;;;;1.83;1.27;;;;;;;18.66;89.23;99981.88;5000566;28;20434;-64
2023/07/27 09:39:03;;;;;;;2.80;1.25;;;;;;;18.64;89.66;99972.63;5008856;28;20045;-63
2023/07/27 09:41:31;;;;;;;3.38;1.70;;;;;;;18.89;89.88;99981.72;5008309;28;20044;-63
2023/07/27 09:43:57;;;;;;;2.95;1.48;;;;;;;18.44;91.96;99971.91;5008061;28;20042;-64
2023/07/27 09:46:23;;;;;;;4.90;1.83;;;;;;;18.89;90.41;99965.34;5003959;28;20401;-64
2023/07/27 09:48:49;;;;;;;2.15;1.38;;;;;;;18.88;90.70;99972.00;5019113;28;20063;-63
2023/07/27 09:51:18;;;;;;;2.92;1.45;;;;;;;19.10;91.10;99972.25;4998122;28;20109;-63
2023/07/27 09:53:44;;;;;;;2.90;1.88;;;;;;;19.01;90.08;99969.34;5043894;28;20047;-63
2023/07/27 09:56:15;;;;;;;3.05;1.50;;;;;;;19.17;90.08;99963.88;5008545;28;20548;-63
2023/07/27 09:58:41;;;;;;;1.85;1.33;;;;;;;19.42;90.06;99965.97;5005514;28;20524;-62
2023/07/27 10:01:08;;;;;;;3.05;1.63;;;;;;;19.28;89.89;99960.88;5007817;28;20026;-63
2023/07/27 10:03:33;;;;;;;3.55;1.90;;;;;;;19.48;88.95;99959.56;5041849;28;20083;-64
2023/07/27 10:06:00;;;;;;;6.05;1.73;;;;;;;19.26;90.80;99961.28;5005372;28;20037;-62
2023/07/27 10:08:26;;;;;;;2.97;1.70;;;;;;;19.35;89.09;99950.53;5006731;28;20062;-63
2023/07/27 10:10:55;;;;;;;2.55;1.38;;;;;;;19.32;89.94;99942.41;5008345;28;20457;-63
2023/07/27 10:13:23;;;;;;;3.00;2.25;;;;;;;19.49;89.53;99949.41;5000544;28;20030;-63
2023/07/27 10:15:51;;;;;;;2.53;1.38;;;;;;;19.46;89.83;99945.56;5008573;28;20045;-63
2023/07/27 10:18:22;;;;;;;3.20;1.67;;;;;;;19.52;89.44;99949.28;5008410;28;20125;-63
2023/07/27 10:20:47;;;;;;;2.72;1.67;;;;;;;19.42;88.76;99950.34;5001789;28;20503;-64
2023/07/27 10:23:17;;;;;;;2.58;1.70;;;;;;;18.90;90.31;99949.75;5062427;28;20171;-63
2023/07/27 10:25:55;;;;;;;3.85;1.45;;;;;;;18.50;93.67;99937.47;5005136;28;20049;-62
2023/07/27 10:28:37;;;;;;;2.63;1.48;;;;;;;18.90;92.88;99936.88;5007616;28;20059;-63
2023/07/27 10:31:17;;;;;;;4.75;1.55;;;;;;;19.16;91.88;99937.78;4999598;28;20390;-63
2023/07/27 10:33:49;;;;;;;2.22;1.52;;;;;;;19.36;91.63;99937.63;5006288;28;20094;-63
2023/07/27 10:36:14;;;;;;;;;;;;;;;19.33;89.98;99939.28;5085105;28;20046;-64
2023/07/27 10:38:40;;;;;;;2.67;1.75;;;;;;;19.39;90.55;99934.84;5004984;28;19909;-62
2023/07/27 10:41:15;;;;;;;4.97;1.58;;;;;;;19.56;90.07;99922.66;5007114;28;20042;-62
2023/07/27 10:44:06;;;;;;;4.47;1.70;;;;;;;19.68;89.70;99923.88;5007428;28;20034;-62
2023/07/27 10:46:31;;;;;;;3.17;1.95;;;;;;;19.56;90.28;99922.66;5004697;28;20026;-63
2023/07/27 10:48:58;;;;;;;3.47;1.92;;;;;;;19.51;89.52;99912.22;5006588;28;20037;-64
2023/07/27 10:51:27;;;;;;;2.60;1.58;;;;;;;19.24;91.52;99909.06;5007659;28;20071;-63
2023/07/27 10:53:53;;;;;;;2.75;1.45;;;;;;;19.37;91.93;99915.38;5007438;28;20033;-63
2023/07/27 10:56:19;;;;;;;2.83;1.58;;;;;;;19.56;91.39;99908.97;5003186;28;20030;-62
2023/07/27 10:58:45;;;;;;;2.47;1.63;;;;;;;19.77;89.78;99902.91;5007681;28;20398;-61
2023/07/27 11:01:10;;;;;;;3.33;1.70;;;;;;;19.73;90.10;99894.03;5007965;28;20042;-63
2023/07/27 11:03:37;;;;;;;3.33;1.90;;;;;;;20.04;89.39;99897.00;5002320;28;20029;-62
2023/07/27 11:06:03;;;;;;;2.47;1.83;;;;;;;19.86;89.73;99893.28;4995942;28;20503;-62
2023/07/27 11:08:29;;;;;;;3.97;1.95;;;;;;;19.97;89.42;99896.47;5008056;28;20548;-62
2023/07/27 11:10:54;;;;;;;2.42;1.85;;;;;;;20.00;89.44;99898.31;5066723;28;20087;-62
2023/07/27 11:13:22;;;;;;;4.32;1.77;;;;;;;20.09;89.19;99898.44;5006991;28;20018;-62
2023/07/27 11:15:48;;;;;;;3.33;1.90;;;;;;;20.06;88.96;99893.84;5003778;28;20052;-62
2023/07/27 11:18:21;;;;;;;3.50;2.08;;;;;;;19.76;88.92;99898.63;5011509;28;20030;-63
2023/07/27 11:20:47;;;;;;;4.07;1.98;;;;;;;19.77;90.13;99891.97;5010651;28;20038;-62
2023/07/27 11:23:12;;;;;;;3.08;1.80;;;;;;;19.80;90.57;99893.06;5007985;28;20399;-64
2023/07/27 11:25:38;;;;;;;4.22;2.42;;;;;;;19.65;89.68;99891.94;5010902;28;20046;-62
2023/07/27 11:28:04;;;;;;;4.10;2.30;;;;;;;19.67;89.77;99884.84;5010554;28;20034;-62